Flight Track Log - Related Links

Times and Time Zones

All times are in EDT time to prevent confusion due to time zone crossing. See the AWI4085 flight status page for this flight to view local times or setup timezone preferences in your user account.

Time Position Orientation Groundspeed Altitude Reporting Facility
EDT Latitude Longitude Course Direction KTS MPH feet Rate Location/Type
Tue 02:52:15 PM 36.9158 -76.1945 206° Southwest  Level FlightAware Approximate
Tue 02:52:45 PM 36.8867 -76.2125 223° Southwest 161 185 800  Level Washington Center
Tue 02:53:51 PM 36.8489 -76.2564 308° West 192 221 3,900 2,281 Climbing Washington Center
Tue 02:54:46 PM 36.8861 -76.3164 12° North 255 293 5,400 1,286 Climbing Washington Center
Tue 02:56:11 PM 36.9886 -76.2886 59° Northeast 298 343 6,900 744 Climbing Washington Center
Tue 02:56:47 PM 37.0158 -76.2317 67° East 306 352 6,900 1,558 Level Washington Center
Tue 02:59:39 PM 37.1108 -75.9539 69° East 317 365 12,300 1,854 Climbing Washington Center
Tue 03:00:40 PM 37.1447 -75.8419 63° Northeast 317 365 14,100 1,967 Climbing Washington Center
Tue 03:01:41 PM 37.1906 -75.7300 17° North 340 391 16,300 2,132 Climbing Washington Center
Tue 03:02:41 PM 37.2764 -75.6964 North 306 352 18,400 1,373 Climbing Washington Center
Tue 03:03:39 PM 37.3700 -75.6858 North 312 359 19,000 305 Climbing Washington Center
Tue 03:04:39 PM 37.4661 -75.6703 North 322 371 19,000  Level Washington Center
Tue 03:05:39 PM 37.5600 -75.6547 North 332 382 19,000  Level Washington Center
Tue 03:06:40 PM 37.6539 -75.6392 11° North 332 382 19,000  Level Washington Center
Tue 03:07:40 PM 37.7497 -75.6156 22° Northeast 337 388 19,000  Level Washington Center
Tue 03:08:41 PM 37.8458 -75.5656 26° Northeast 343 395 19,000  Level Washington Center
Tue 03:09:39 PM 37.9353 -75.5103 23° Northeast 350 403 19,000  Level Washington Center
Tue 03:10:40 PM 38.0292 -75.4600 27° Northeast 356 410 19,000  Level Washington Center
Tue 03:11:41 PM 38.1186 -75.4017 23° Northeast 356 410 19,000  Level Washington Center
Tue 03:12:41 PM 38.2125 -75.3514 25° Northeast 361 415 19,000  Level Washington Center
Tue 03:13:39 PM 38.3042 -75.2981 27° Northeast 356 410 19,000 -50 Level Washington Center
Tue 03:14:40 PM 38.3997 -75.2367 26° Northeast 356 410 18,900 -148 Descending Washington Center
Tue 03:15:41 PM 38.4914 -75.1806 25° Northeast 356 410 18,700 -1,210 Descending Washington Center
Tue 03:16:39 PM 38.5789 -75.1294 24° Northeast 356 410 16,500 -1,866 Descending Washington Center
Tue 03:17:40 PM 38.6642 -75.0811 15° North 346 398 15,000 -738 Descending Washington Center
Tue 03:18:41 PM 38.7536 -75.0514 North 334 384 15,000 -397 Level Washington Center
Tue 03:19:41 PM 38.8472 -75.0453 North 328 377 14,200 -915 Descending Washington Center
Tue 03:20:39 PM 38.9411 -75.0339 North 333 383 13,200 -1,017 Descending Washington Center
Tue 03:21:39 PM 39.0308 -75.0253 North 328 377 12,200 -1,041 Descending Washington Center
Tue 03:22:40 PM 39.1225 -75.0164 North 328 377 11,100 -1,150 Descending Washington Center
Tue 03:24:26 PM 39.2736 -74.9950 North 273 314 9,000 -1,192 Descending FAA TRACON SMA TRACON (SMA)
Tue 03:25:06 PM 39.3239 -74.9908 North 282 325 8,200 -750 Descending FAA TRACON SMA TRACON (SMA)
Tue 03:25:46 PM 39.3775 -74.9853 North 279 321 8,000 -150 Descending FAA TRACON SMA TRACON (SMA)
Tue 03:26:26 PM 39.4297 -74.9789 North 278 320 8,000  Level FAA TRACON SMA TRACON (SMA)
Tue 03:27:06 PM 39.4783 -74.9736 North 281 323 8,000 -296 Level FAA TRACON SMA TRACON (SMA)
Tue 03:27:47 PM 39.5353 -74.9672 North 281 323 7,600 -900 Descending FAA TRACON SMA TRACON (SMA)
Tue 03:28:26 PM 39.5856 -74.9614 North 285 328 6,800 -1,063 Descending FAA TRACON SMA TRACON (SMA)
Tue 03:29:06 PM 39.6353 -74.9575 12° North 277 319 6,200 -600 Descending FAA TRACON SMA TRACON (SMA)
Tue 03:29:46 PM 39.6872 -74.9431 13° North 278 320 6,000 -148 Descending FAA TRACON SMA TRACON (SMA)
Tue 03:30:27 PM 39.7372 -74.9275 13° North 274 315 6,000 -375 Level FAA TRACON SMA TRACON (SMA)
Tue 03:31:06 PM 39.7839 -74.9131 North 271 312 5,500 -1,139 Descending FAA TRACON SMA TRACON (SMA)
Tue 03:31:46 PM 39.8333 -74.9075 355° North 249 287 4,500 -1,200 Descending FAA TRACON SMA TRACON (SMA)
Tue 03:32:26 PM 39.8789 -74.9125 321° Northwest 227 261 3,900 -741 Descending FAA TRACON SMA TRACON (SMA)
Tue 03:33:07 PM 39.9014 -74.9361 291° West 166 191 3,500 -667 Descending FAA TRACON SMA TRACON (SMA)
Tue 03:33:47 PM 39.9125 -74.9731 280° West 157 181 3,000 -380 Descending FAA TRACON SMA TRACON (SMA)
Tue 03:34:26 PM 39.9175 -75.0097 280° West 152 175 3,000  Level FAA TRACON SMA TRACON (SMA)

Login

Don't have an account? Register now (free) for customized features, flight alerts, and more!